sensor_id;sensor_type;location;lat;lon;timestamp;pressure;altitude;pressure_sealevel;temperature;humidity
65280;BME280;51878;55.748;48.742;2023-07-16T00:01:56;98021.09;;;14.07;100.00
65280;BME280;51878;55.748;48.742;2023-07-16T00:07:01;98086.44;;;14.47;100.00
65280;BME280;51878;55.748;48.742;2023-07-16T00:12:04;98052.69;;;14.20;100.00
65280;BME280;51878;55.748;48.742;2023-07-16T00:17:06;98094.03;;;14.45;100.00
65280;BME280;51878;55.748;48.742;2023-07-16T00:22:09;98080.63;;;14.27;100.00
65280;BME280;51878;55.748;48.742;2023-07-16T00:27:11;98043.63;;;14.02;100.00
65280;BME280;51878;55.748;48.742;2023-07-16T00:32:13;98076.88;;;14.16;100.00
65280;BME280;51878;55.748;48.742;2023-07-16T00:37:15;98110.69;;;14.32;100.00
65280;BME280;51878;55.748;48.742;2023-07-16T00:42:18;98068.75;;;14.04;100.00
65280;BME280;51878;55.748;48.742;2023-07-16T00:47:21;98087.53;;;14.18;100.00
65280;BME280;51878;55.748;48.742;2023-07-16T00:52:26;98063.78;;;14.01;100.00
65280;BME280;51878;55.748;48.742;2023-07-16T00:57:31;98084.09;;;14.11;100.00
65280;BME280;51878;55.748;48.742;2023-07-16T01:02:33;98105.19;;;14.15;100.00
65280;BME280;51878;55.748;48.742;2023-07-16T01:07:36;98115.94;;;14.22;100.00
65280;BME280;51878;55.748;48.742;2023-07-16T01:12:39;98082.47;;;14.10;100.00
65280;BME280;51878;55.748;48.742;2023-07-16T01:17:41;98113.34;;;14.27;100.00
65280;BME280;51878;55.748;48.742;2023-07-16T01:33:34;98110.88;;;14.42;100.00
65280;BME280;51878;55.748;48.742;2023-07-16T01:38:37;98100.06;;;14.47;100.00
65280;BME280;51878;55.748;48.742;2023-07-16T01:43:39;98091.13;;;14.52;100.00
65280;BME280;51878;55.748;48.742;2023-07-16T01:48:41;98066.75;;;14.45;100.00
65280;BME280;51878;55.748;48.742;2023-07-16T01:53:44;98093.75;;;14.76;100.00
65280;BME280;51878;55.748;48.742;2023-07-16T01:58:46;98096.25;;;14.77;100.00
65280;BME280;51878;55.748;48.742;2023-07-16T02:03:48;98097.72;;;14.85;100.00
65280;BME280;51878;55.748;48.742;2023-07-16T02:08:50;98059.53;;;14.68;100.00
65280;BME280;51878;55.748;48.742;2023-07-16T02:13:53;98107.81;;;15.01;100.00
65280;BME280;51878;55.748;48.742;2023-07-16T02:18:55;98089.44;;;14.97;100.00
65280;BME280;51878;55.748;48.742;2023-07-16T02:23:57;98103.34;;;15.12;100.00
65280;BME280;51878;55.748;48.742;2023-07-16T02:28:59;98105.31;;;15.17;100.00
65280;BME280;51878;55.748;48.742;2023-07-16T02:34:03;98080.28;;;15.03;100.00
65280;BME280;51878;55.748;48.742;2023-07-16T02:39:05;98108.78;;;15.29;100.00
65280;BME280;51878;55.748;48.742;2023-07-16T02:44:08;98108.94;;;15.39;100.00
65280;BME280;51878;55.748;48.742;2023-07-16T02:49:10;98076.84;;;15.29;100.00
65280;BME280;51878;55.748;48.742;2023-07-16T02:54:13;98060.22;;;15.31;100.00
65280;BME280;51878;55.748;48.742;2023-07-16T02:59:15;98064.06;;;15.52;100.00
65280;BME280;51878;55.748;48.742;2023-07-16T03:04:17;97990.09;;;15.15;100.00
65280;BME280;51878;55.748;48.742;2023-07-16T03:09:19;98051.06;;;15.81;100.00
65280;BME280;51878;55.748;48.742;2023-07-16T03:14:21;98003.97;;;15.74;100.00
65280;BME280;51878;55.748;48.742;2023-07-16T03:19:24;98082.88;;;16.42;100.00
65280;BME280;51878;55.748;48.742;2023-07-16T03:24:26;98049.47;;;16.40;100.00
65280;BME280;51878;55.748;48.742;2023-07-16T03:29:28;98046.59;;;16.51;100.00
65280;BME280;51878;55.748;48.742;2023-07-16T03:34:30;98039.59;;;16.66;100.00
65280;BME280;51878;55.748;48.742;2023-07-16T03:39:33;98047.97;;;16.86;100.00
65280;BME280;51878;55.748;48.742;2023-07-16T03:44:35;98077.03;;;17.25;100.00
65280;BME280;51878;55.748;48.742;2023-07-16T03:49:37;98086.97;;;17.41;100.00
65280;BME280;51878;55.748;48.742;2023-07-16T03:54:39;98024.56;;;17.06;100.00
65280;BME280;51878;55.748;48.742;2023-07-16T03:59:42;98046.63;;;17.26;100.00
65280;BME280;51878;55.748;48.742;2023-07-16T04:04:44;98089.06;;;17.71;100.00
65280;BME280;51878;55.748;48.742;2023-07-16T04:09:47;98078.91;;;17.72;100.00
65280;BME280;51878;55.748;48.742;2023-07-16T04:14:50;98084.50;;;17.87;100.00
65280;BME280;51878;55.748;48.742;2023-07-16T04:19:53;98074.00;;;17.74;100.00
65280;BME280;51878;55.748;48.742;2023-07-16T04:24:55;98019.66;;;17.61;100.00
65280;BME280;51878;55.748;48.742;2023-07-16T04:29:57;98092.53;;;18.04;100.00
65280;BME280;51878;55.748;48.742;2023-07-16T04:34:59;98081.59;;;18.14;100.00
65280;BME280;51878;55.748;48.742;2023-07-16T04:40:05;98020.00;;;17.80;100.00
65280;BME280;51878;55.748;48.742;2023-07-16T04:45:07;98028.28;;;17.90;100.00
65280;BME280;51878;55.748;48.742;2023-07-16T04:50:10;98074.69;;;18.12;100.00
65280;BME280;51878;55.748;48.742;2023-07-16T04:55:12;98036.28;;;18.02;100.00
65280;BME280;51878;55.748;48.742;2023-07-16T05:00:15;98007.50;;;18.09;100.00
65280;BME280;51878;55.748;48.742;2023-07-16T05:05:17;98083.34;;;18.77;100.00
65280;BME280;51878;55.748;48.742;2023-07-16T05:10:19;98077.84;;;18.77;100.00
65280;BME280;51878;55.748;48.742;2023-07-16T05:15:22;98059.72;;;18.91;100.00
65280;BME280;51878;55.748;48.742;2023-07-16T05:20:24;98064.13;;;19.03;99.14
65280;BME280;51878;55.748;48.742;2023-07-16T05:25:26;97949.66;;;18.36;99.53
65280;BME280;51878;55.748;48.742;2023-07-16T05:30:31;98075.13;;;19.08;99.06
65280;BME280;51878;55.748;48.742;2023-07-16T05:35:33;98067.97;;;19.02;98.49
65280;BME280;51878;55.748;48.742;2023-07-16T05:40:38;97975.16;;;18.27;98.25
65280;BME280;51878;55.748;48.742;2023-07-16T05:45:40;98019.88;;;18.43;100.00
65280;BME280;51878;55.748;48.742;2023-07-16T05:50:44;98075.63;;;18.64;100.00
65280;BME280;51878;55.748;48.742;2023-07-16T05:55:47;98096.78;;;18.68;99.88
65280;BME280;51878;55.748;48.742;2023-07-16T06:00:56;98090.19;;;18.64;100.00
65280;BME280;51878;55.748;48.742;2023-07-16T06:05:58;98093.47;;;18.56;100.00
65280;BME280;51878;55.748;48.742;2023-07-16T06:11:00;98063.56;;;18.54;100.00
65280;BME280;51878;55.748;48.742;2023-07-16T06:16:03;98094.34;;;18.92;98.56
65280;BME280;51878;55.748;48.742;2023-07-16T06:21:05;98087.19;;;19.07;94.17
65280;BME280;51878;55.748;48.742;2023-07-16T06:26:08;98064.94;;;19.24;91.85
65280;BME280;51878;55.748;48.742;2023-07-16T06:31:10;98056.34;;;19.51;91.32
65280;BME280;51878;55.748;48.742;2023-07-16T06:36:13;98040.06;;;19.75;87.46
65280;BME280;51878;55.748;48.742;2023-07-16T06:41:17;98090.41;;;20.30;82.33
65280;BME280;51878;55.748;48.742;2023-07-16T06:46:20;98070.00;;;20.36;80.20
65280;BME280;51878;55.748;48.742;2023-07-16T06:51:24;98055.25;;;20.22;77.19
65280;BME280;51878;55.748;48.742;2023-07-16T06:56:26;98093.25;;;20.20;78.17
65280;BME280;51878;55.748;48.742;2023-07-16T07:01:29;98095.34;;;19.78;79.58
65280;BME280;51878;55.748;48.742;2023-07-16T07:06:34;98100.31;;;19.51;83.81
65280;BME280;51878;55.748;48.742;2023-07-16T07:11:36;98085.28;;;18.87;86.46
65280;BME280;51878;55.748;48.742;2023-07-16T07:16:38;98095.09;;;18.52;90.91
65280;BME280;51878;55.748;48.742;2023-07-16T07:21:42;98047.53;;;18.00;92.31
65280;BME280;51878;55.748;48.742;2023-07-16T07:26:44;98087.91;;;18.20;92.42
65280;BME280;51878;55.748;48.742;2023-07-16T07:31:54;98107.41;;;18.29;94.75
65280;BME280;51878;55.748;48.742;2023-07-16T07:36:56;98038.22;;;18.06;95.41
65280;BME280;51878;55.748;48.742;2023-07-16T07:41:58;98114.94;;;18.85;95.90
65280;BME280;51878;55.748;48.742;2023-07-16T07:47:01;98089.13;;;19.01;90.29
65280;BME280;51878;55.748;48.742;2023-07-16T07:52:09;98060.56;;;18.97;89.14
65280;BME280;51878;55.748;48.742;2023-07-16T07:57:14;98059.16;;;18.74;89.71
65280;BME280;51878;55.748;48.742;2023-07-16T08:02:19;98055.03;;;18.46;92.14
65280;BME280;51878;55.748;48.742;2023-07-16T08:07:23;98108.63;;;18.79;92.92
65280;BME280;51878;55.748;48.742;2023-07-16T08:12:25;98080.88;;;18.96;93.68
65280;BME280;51878;55.748;48.742;2023-07-16T08:17:27;98104.50;;;19.38;92.42
65280;BME280;51878;55.748;48.742;2023-07-16T08:22:30;98065.41;;;19.56;88.70
65280;BME280;51878;55.748;48.742;2023-07-16T08:27:32;98111.44;;;20.16;86.41
65280;BME280;51878;55.748;48.742;2023-07-16T08:32:34;98073.34;;;20.33;83.60
65280;BME280;51878;55.748;48.742;2023-07-16T08:37:37;98120.53;;;21.05;80.53
65280;BME280;51878;55.748;48.742;2023-07-16T08:42:40;98092.50;;;21.28;75.61
65280;BME280;51878;55.748;48.742;2023-07-16T08:47:42;98048.13;;;21.53;74.01
65280;BME280;51878;55.748;48.742;2023-07-16T08:52:45;98088.25;;;22.13;69.96
65280;BME280;51878;55.748;48.742;2023-07-16T08:57:48;98075.81;;;21.91;68.46
65280;BME280;51878;55.748;48.742;2023-07-16T09:02:52;98094.13;;;21.82;68.23
65280;BME280;51878;55.748;48.742;2023-07-16T09:07:54;98122.78;;;21.62;69.94
65280;BME280;51878;55.748;48.742;2023-07-16T09:13:01;98130.78;;;21.29;71.23
65280;BME280;51878;55.748;48.742;2023-07-16T09:18:03;98139.31;;;20.98;73.80
65280;BME280;51878;55.748;48.742;2023-07-16T09:23:09;98133.47;;;20.66;76.68
65280;BME280;51878;55.748;48.742;2023-07-16T09:28:18;98065.50;;;20.11;77.73
65280;BME280;51878;55.748;48.742;2023-07-16T09:33:22;98128.13;;;20.30;78.60
65280;BME280;51878;55.748;48.742;2023-07-16T09:38:31;98132.66;;;20.05;79.84
65280;BME280;51878;55.748;48.742;2023-07-16T09:43:36;98056.88;;;19.53;80.94
65280;BME280;51878;55.748;48.742;2023-07-16T09:48:40;98095.34;;;19.63;82.19
65280;BME280;51878;55.748;48.742;2023-07-16T09:53:45;98087.13;;;19.58;83.31
65280;BME280;51878;55.748;48.742;2023-07-16T09:58:49;98123.63;;;19.89;83.52
65280;BME280;51878;55.748;48.742;2023-07-16T10:03:54;98125.56;;;19.84;84.23
65280;BME280;51878;55.748;48.742;2023-07-16T10:08:56;98126.03;;;20.06;85.20
65280;BME280;51878;55.748;48.742;2023-07-16T10:13:59;98101.88;;;20.48;84.88
65280;BME280;51878;55.748;48.742;2023-07-16T10:19:04;98119.22;;;21.27;80.63
65280;BME280;51878;55.748;48.742;2023-07-16T10:24:16;98106.13;;;21.72;73.44
65280;BME280;51878;55.748;48.742;2023-07-16T10:29:20;98079.53;;;21.81;70.84
65280;BME280;51878;55.748;48.742;2023-07-16T10:34:22;98125.19;;;21.93;69.66
65280;BME280;51878;55.748;48.742;2023-07-16T10:39:25;98134.00;;;21.71;70.87
65280;BME280;51878;55.748;48.742;2023-07-16T10:44:27;98143.97;;;21.37;71.93
65280;BME280;51878;55.748;48.742;2023-07-16T10:49:29;98146.91;;;20.77;76.01
65280;BME280;51878;55.748;48.742;2023-07-16T10:54:35;98109.09;;;20.38;78.53
65280;BME280;51878;55.748;48.742;2023-07-16T10:59:44;98143.66;;;20.65;78.69
65280;BME280;51878;55.748;48.742;2023-07-16T11:04:47;98146.22;;;20.51;81.06
65280;BME280;51878;55.748;48.742;2023-07-16T11:09:51;98099.53;;;20.31;81.23
65280;BME280;51878;55.748;48.742;2023-07-16T11:14:55;98152.19;;;20.69;81.00
65280;BME280;51878;55.748;48.742;2023-07-16T11:19:59;98150.75;;;20.81;80.63
65280;BME280;51878;55.748;48.742;2023-07-16T11:25:03;98125.94;;;20.81;80.56
65280;BME280;51878;55.748;48.742;2023-07-16T11:30:21;98163.44;;;21.51;78.44
65280;BME280;51878;55.748;48.742;2023-07-16T11:35:30;98169.47;;;21.53;76.25
65280;BME280;51878;55.748;48.742;2023-07-16T11:40:36;98122.66;;;21.14;75.51
65280;BME280;51878;55.748;48.742;2023-07-16T11:45:47;98142.41;;;21.26;75.76
65280;BME280;51878;55.748;48.742;2023-07-16T11:50:50;98132.59;;;21.10;75.92
65280;BME280;51878;55.748;48.742;2023-07-16T11:55:55;98145.63;;;21.33;77.29
65280;BME280;51878;55.748;48.742;2023-07-16T12:01:00;98103.41;;;21.38;76.72
65280;BME280;51878;55.748;48.742;2023-07-16T12:06:03;98159.50;;;22.11;74.41
65280;BME280;51878;55.748;48.742;2023-07-16T12:11:05;98168.78;;;22.20;73.27
65280;BME280;51878;55.748;48.742;2023-07-16T12:16:07;98132.13;;;21.90;72.05
65280;BME280;51878;55.748;48.742;2023-07-16T12:21:09;98169.72;;;21.86;72.08
65280;BME280;51878;55.748;48.742;2023-07-16T12:26:14;98173.47;;;21.37;74.34
65280;BME280;51878;55.748;48.742;2023-07-16T12:31:17;98168.22;;;21.01;76.98
65280;BME280;51878;55.748;48.742;2023-07-16T12:36:22;98166.56;;;20.60;79.87
65280;BME280;51878;55.748;48.742;2023-07-16T12:41:25;98174.16;;;20.24;84.67
65280;BME280;51878;55.748;48.742;2023-07-16T12:46:27;98182.72;;;20.17;86.22
65280;BME280;51878;55.748;48.742;2023-07-16T12:51:30;98146.50;;;19.85;87.20
65280;BME280;51878;55.748;48.742;2023-07-16T12:56:32;98172.06;;;19.85;89.71
65280;BME280;51878;55.748;48.742;2023-07-16T13:01:34;98182.50;;;19.88;89.96
65280;BME280;51878;55.748;48.742;2023-07-16T13:06:43;98178.69;;;19.74;91.94
65280;BME280;51878;55.748;48.742;2023-07-16T13:11:49;98165.75;;;19.59;92.62
65280;BME280;51878;55.748;48.742;2023-07-16T13:16:52;98185.56;;;19.46;94.77
65280;BME280;51878;55.748;48.742;2023-07-16T13:21:56;98162.50;;;19.21;96.91
65280;BME280;51878;55.748;48.742;2023-07-16T13:26:59;98188.34;;;19.25;98.91
65280;BME280;51878;55.748;48.742;2023-07-16T13:32:03;98130.03;;;18.82;99.81
65280;BME280;51878;55.748;48.742;2023-07-16T13:37:06;98156.44;;;18.98;100.00
65280;BME280;51878;55.748;48.742;2023-07-16T13:42:08;98187.75;;;19.13;100.00
65280;BME280;51878;55.748;48.742;2023-07-16T13:47:24;98121.53;;;18.84;100.00
65280;BME280;51878;55.748;48.742;2023-07-16T13:52:28;98175.41;;;19.20;100.00
65280;BME280;51878;55.748;48.742;2023-07-16T13:57:30;98162.22;;;19.12;100.00
65280;BME280;51878;55.748;48.742;2023-07-16T14:02:32;98096.84;;;18.78;100.00
65280;BME280;51878;55.748;48.742;2023-07-16T14:07:42;98155.91;;;19.17;100.00
65280;BME280;51878;55.748;48.742;2023-07-16T14:12:46;98182.81;;;19.35;100.00
65280;BME280;51878;55.748;48.742;2023-07-16T14:17:50;98188.84;;;19.37;100.00
65280;BME280;51878;55.748;48.742;2023-07-16T14:23:35;98152.03;;;19.13;100.00
65280;BME280;51878;55.748;48.742;2023-07-16T14:28:37;98173.47;;;19.26;100.00
65280;BME280;51878;55.748;48.742;2023-07-16T14:33:42;98158.09;;;19.25;100.00
65280;BME280;51878;55.748;48.742;2023-07-16T14:38:46;98146.53;;;19.18;100.00
65280;BME280;51878;55.748;48.742;2023-07-16T14:43:52;98174.31;;;19.37;100.00
65280;BME280;51878;55.748;48.742;2023-07-16T14:48:57;98178.16;;;19.41;100.00
65280;BME280;51878;55.748;48.742;2023-07-16T14:54:03;98117.97;;;19.04;100.00
65280;BME280;51878;55.748;48.742;2023-07-16T14:59:05;98171.56;;;19.37;100.00
65280;BME280;51878;55.748;48.742;2023-07-16T15:04:11;98152.88;;;19.18;100.00
65280;BME280;51878;55.748;48.742;2023-07-16T15:09:15;98194.38;;;19.43;100.00
65280;BME280;51878;55.748;48.742;2023-07-16T15:14:20;98189.16;;;19.36;100.00
65280;BME280;51878;55.748;48.742;2023-07-16T15:19:23;98162.50;;;19.21;100.00
65280;BME280;51878;55.748;48.742;2023-07-16T15:24:25;98163.88;;;19.18;100.00
65280;BME280;51878;55.748;48.742;2023-07-16T15:29:27;98164.44;;;19.20;100.00
65280;BME280;51878;55.748;48.742;2023-07-16T15:34:30;98162.50;;;19.21;100.00
65280;BME280;51878;55.748;48.742;2023-07-16T15:39:32;98200.97;;;19.52;100.00
65280;BME280;51878;55.748;48.742;2023-07-16T15:44:34;98132.78;;;19.18;100.00
65280;BME280;51878;55.748;48.742;2023-07-16T15:49:44;98183.91;;;19.65;100.00
65280;BME280;51878;55.748;48.742;2023-07-16T15:55:10;98193.78;;;19.66;100.00
65280;BME280;51878;55.748;48.742;2023-07-16T16:00:13;98188.31;;;19.61;100.00
65280;BME280;51878;55.748;48.742;2023-07-16T16:05:22;98199.03;;;19.57;100.00
65280;BME280;51878;55.748;48.742;2023-07-16T16:10:25;98188.03;;;19.57;100.00
65280;BME280;51878;55.748;48.742;2023-07-16T16:15:27;98149.28;;;19.38;100.00
65280;BME280;51878;55.748;48.742;2023-07-16T16:20:29;98187.19;;;19.47;100.00
65280;BME280;51878;55.748;48.742;2023-07-16T16:25:33;98178.72;;;19.38;100.00
65280;BME280;51878;55.748;48.742;2023-07-16T16:30:41;98191.59;;;19.37;100.00
65280;BME280;51878;55.748;48.742;2023-07-16T16:35:46;98155.34;;;19.15;100.00
65280;BME280;51878;55.748;48.742;2023-07-16T16:40:49;98148.75;;;19.06;100.00
65280;BME280;51878;55.748;48.742;2023-07-16T16:45:51;98173.47;;;19.21;100.00
65280;BME280;51878;55.748;48.742;2023-07-16T16:50:54;98185.00;;;19.18;100.00
65280;BME280;51878;55.748;48.742;2023-07-16T16:56:04;98191.88;;;19.15;100.00
65280;BME280;51878;55.748;48.742;2023-07-16T17:01:07;98162.75;;;18.94;100.00
65280;BME280;51878;55.748;48.742;2023-07-16T17:06:15;98156.97;;;18.90;100.00
65280;BME280;51878;55.748;48.742;2023-07-16T17:11:18;98136.59;;;18.76;100.00
65280;BME280;51878;55.748;48.742;2023-07-16T17:16:21;98188.84;;;19.07;100.00
65280;BME280;51878;55.748;48.742;2023-07-16T17:21:24;98192.97;;;19.04;100.00
65280;BME280;51878;55.748;48.742;2023-07-16T17:26:28;98152.00;;;18.77;100.00
65280;BME280;51878;55.748;48.742;2023-07-16T17:31:30;98156.63;;;18.71;100.00
65280;BME280;51878;55.748;48.742;2023-07-16T17:36:34;98164.31;;;18.69;100.00
65280;BME280;51878;55.748;48.742;2023-07-16T17:41:36;98202.56;;;18.91;100.00
65280;BME280;51878;55.748;48.742;2023-07-16T17:46:39;98165.13;;;18.65;100.00
65280;BME280;51878;55.748;48.742;2023-07-16T17:51:42;98190.72;;;18.81;100.00
65280;BME280;51878;55.748;48.742;2023-07-16T17:56:44;98165.69;;;18.56;100.00
65280;BME280;51878;55.748;48.742;2023-07-16T18:01:47;98157.16;;;18.48;100.00
65280;BME280;51878;55.748;48.742;2023-07-16T18:06:49;98196.16;;;18.60;100.00
65280;BME280;51878;55.748;48.742;2023-07-16T18:11:54;98130.13;;;18.14;100.00
65280;BME280;51878;55.748;48.742;2023-07-16T18:16:58;98130.13;;;18.09;100.00
65280;BME280;51878;55.748;48.742;2023-07-16T18:22:02;98127.06;;;18.05;100.00
65280;BME280;51878;55.748;48.742;2023-07-16T18:27:11;98185.66;;;18.36;100.00
65280;BME280;51878;55.748;48.742;2023-07-16T18:32:13;98196.09;;;18.40;100.00
65280;BME280;51878;55.748;48.742;2023-07-16T18:37:18;98182.91;;;18.36;100.00
65280;BME280;51878;55.748;48.742;2023-07-16T18:42:23;98194.97;;;18.41;100.00
65280;BME280;51878;55.748;48.742;2023-07-16T18:47:31;98184.25;;;18.34;100.00
65280;BME280;51878;55.748;48.742;2023-07-16T18:52:36;98183.72;;;18.37;100.00
65280;BME280;51878;55.748;48.742;2023-07-16T18:57:41;98191.97;;;18.37;100.00
65280;BME280;51878;55.748;48.742;2023-07-16T19:02:45;98180.94;;;18.22;100.00
65280;BME280;51878;55.748;48.742;2023-07-16T19:07:48;98188.09;;;18.28;100.00
65280;BME280;51878;55.748;48.742;2023-07-16T19:12:53;98154.50;;;18.05;100.00
65280;BME280;51878;55.748;48.742;2023-07-16T19:17:58;98191.66;;;18.28;100.00
65280;BME280;51878;55.748;48.742;2023-07-16T19:23:01;98153.97;;;18.08;100.00
65280;BME280;51878;55.748;48.742;2023-07-16T19:28:04;98178.75;;;18.24;100.00
65280;BME280;51878;55.748;48.742;2023-07-16T19:33:06;98147.38;;;17.99;100.00
65280;BME280;51878;55.748;48.742;2023-07-16T19:38:11;98189.69;;;18.18;100.00
65280;BME280;51878;55.748;48.742;2023-07-16T19:43:14;98166.28;;;18.01;100.00
65280;BME280;51878;55.748;48.742;2023-07-16T19:48:18;98190.72;;;18.07;100.00
65280;BME280;51878;55.748;48.742;2023-07-16T19:53:20;98162.66;;;17.90;100.00
65280;BME280;51878;55.748;48.742;2023-07-16T19:58:30;98198.06;;;17.96;100.00
65280;BME280;51878;55.748;48.742;2023-07-16T20:03:35;98212.88;;;17.90;100.00
65280;BME280;51878;55.748;48.742;2023-07-16T20:08:38;98187.75;;;17.71;100.00
65280;BME280;51878;55.748;48.742;2023-07-16T20:13:41;98203.16;;;17.77;100.00
65280;BME280;51878;55.748;48.742;2023-07-16T20:18:44;98198.47;;;17.73;100.00
65280;BME280;51878;55.748;48.742;2023-07-16T20:23:50;98187.16;;;17.64;100.00
65280;BME280;51878;55.748;48.742;2023-07-16T20:28:53;98203.31;;;17.66;100.00
65280;BME280;51878;55.748;48.742;2023-07-16T20:33:58;98187.06;;;17.49;100.00
65280;BME280;51878;55.748;48.742;2023-07-16T20:39:00;98165.75;;;17.24;100.00
65280;BME280;51878;55.748;48.742;2023-07-16T20:44:03;98169.81;;;17.16;100.00
65280;BME280;51878;55.748;48.742;2023-07-16T20:49:05;98176.88;;;17.07;100.00
65280;BME280;51878;55.748;48.742;2023-07-16T20:54:08;98219.44;;;17.20;100.00
65280;BME280;51878;55.748;48.742;2023-07-16T20:59:11;98207.56;;;17.09;100.00
65280;BME280;51878;55.748;48.742;2023-07-16T21:04:14;98168.41;;;16.81;100.00
65280;BME280;51878;55.748;48.742;2023-07-16T21:09:16;98172.44;;;16.79;100.00
65280;BME280;51878;55.748;48.742;2023-07-16T21:14:20;98195.03;;;16.91;100.00
65280;BME280;51878;55.748;48.742;2023-07-16T21:19:22;98177.44;;;16.82;100.00
65280;BME280;51878;55.748;48.742;2023-07-16T21:24:24;98171.63;;;16.78;100.00
65280;BME280;51878;55.748;48.742;2023-07-16T21:29:27;98162.28;;;16.74;100.00
65280;BME280;51878;55.748;48.742;2023-07-16T21:34:29;98178.28;;;16.82;100.00
65280;BME280;51878;55.748;48.742;2023-07-16T21:39:31;98122.63;;;16.49;100.00
65280;BME280;51878;55.748;48.742;2023-07-16T21:44:34;98198.41;;;16.98;100.00
65280;BME280;51878;55.748;48.742;2023-07-16T21:49:36;98193.19;;;16.97;100.00
65280;BME280;51878;55.748;48.742;2023-07-16T21:54:38;98181.97;;;16.98;100.00
65280;BME280;51878;55.748;48.742;2023-07-16T21:59:41;98174.84;;;16.97;100.00
65280;BME280;51878;55.748;48.742;2023-07-16T22:04:44;98161.09;;;16.92;100.00
65280;BME280;51878;55.748;48.742;2023-07-16T22:09:46;98166.91;;;16.96;100.00
65280;BME280;51878;55.748;48.742;2023-07-16T22:14:50;98154.84;;;16.97;100.00
65280;BME280;51878;55.748;48.742;2023-07-16T22:19:55;98152.38;;;16.95;100.00
65280;BME280;51878;55.748;48.742;2023-07-16T22:24:57;98143.78;;;16.86;100.00
65280;BME280;51878;55.748;48.742;2023-07-16T22:29:59;98160.44;;;17.07;100.00
65280;BME280;51878;55.748;48.742;2023-07-16T22:35:06;98122.22;;;16.90;100.00
65280;BME280;51878;55.748;48.742;2023-07-16T22:40:11;98131.25;;;16.90;100.00
65280;BME280;51878;55.748;48.742;2023-07-16T22:45:17;98105.06;;;16.72;100.00
65280;BME280;51878;55.748;48.742;2023-07-16T22:50:19;98134.19;;;16.84;100.00
65280;BME280;51878;55.748;48.742;2023-07-16T22:55:21;98126.25;;;16.82;100.00
65280;BME280;51878;55.748;48.742;2023-07-16T23:00:23;98126.16;;;16.77;100.00
65280;BME280;51878;55.748;48.742;2023-07-16T23:05:26;98088.44;;;16.52;100.00
65280;BME280;51878;55.748;48.742;2023-07-16T23:10:29;98079.28;;;16.36;100.00
65280;BME280;51878;55.748;48.742;2023-07-16T23:15:33;98134.03;;;16.68;100.00
65280;BME280;51878;55.748;48.742;2023-07-16T23:20:35;98108.75;;;16.56;100.00
65280;BME280;51878;55.748;48.742;2023-07-16T23:25:38;98125.19;;;16.61;100.00
65280;BME280;51878;55.748;48.742;2023-07-16T23:30:40;98094.34;;;16.39;100.00
65280;BME280;51878;55.748;48.742;2023-07-16T23:35:43;98127.91;;;16.56;100.00
65280;BME280;51878;55.748;48.742;2023-07-16T23:40:45;98091.81;;;16.32;100.00
65280;BME280;51878;55.748;48.742;2023-07-16T23:45:47;98083.53;;;16.27;100.00
65280;BME280;51878;55.748;48.742;2023-07-16T23:50:49;98104.47;;;16.38;100.00
65280;BME280;51878;55.748;48.742;2023-07-16T23:55:52;98101.97;;;16.37;100.00
